sensor_id;sensor_type;location;lat;lon;timestamp;temperature;humidity
42979;DHT22;28616;44.746;19.678;2022-07-29T00:00:53;21.30;99.90
42979;DHT22;28616;44.746;19.678;2022-07-29T00:03:19;21.30;99.90
42979;DHT22;28616;44.746;19.678;2022-07-29T00:05:44;21.40;99.90
42979;DHT22;28616;44.746;19.678;2022-07-29T00:08:10;21.30;99.90
42979;DHT22;28616;44.746;19.678;2022-07-29T00:10:36;21.30;99.90
42979;DHT22;28616;44.746;19.678;2022-07-29T00:13:02;21.30;99.90
42979;DHT22;28616;44.746;19.678;2022-07-29T00:15:28;21.20;99.90
42979;DHT22;28616;44.746;19.678;2022-07-29T00:17:54;21.20;99.90
42979;DHT22;28616;44.746;19.678;2022-07-29T00:20:20;21.20;99.90
42979;DHT22;28616;44.746;19.678;2022-07-29T00:22:45;21.10;99.90
42979;DHT22;28616;44.746;19.678;2022-07-29T00:25:12;21.10;99.90
42979;DHT22;28616;44.746;19.678;2022-07-29T00:27:38;21.10;99.90
42979;DHT22;28616;44.746;19.678;2022-07-29T00:30:05;21.10;99.90
42979;DHT22;28616;44.746;19.678;2022-07-29T00:32:31;21.10;99.90
42979;DHT22;28616;44.746;19.678;2022-07-29T00:34:57;21.00;99.90
42979;DHT22;28616;44.746;19.678;2022-07-29T00:37:41;20.90;99.90
42979;DHT22;28616;44.746;19.678;2022-07-29T00:40:08;20.90;99.90
42979;DHT22;28616;44.746;19.678;2022-07-29T00:42:48;20.90;99.90
42979;DHT22;28616;44.746;19.678;2022-07-29T00:45:14;20.90;99.90
42979;DHT22;28616;44.746;19.678;2022-07-29T00:47:40;20.90;99.90
42979;DHT22;28616;44.746;19.678;2022-07-29T00:50:08;20.90;99.90
42979;DHT22;28616;44.746;19.678;2022-07-29T00:52:36;20.90;99.90
42979;DHT22;28616;44.746;19.678;2022-07-29T00:55:03;20.90;99.90
42979;DHT22;28616;44.746;19.678;2022-07-29T00:57:30;20.90;99.90
42979;DHT22;28616;44.746;19.678;2022-07-29T00:59:56;20.90;99.90
42979;DHT22;28616;44.746;19.678;2022-07-29T01:02:21;20.90;99.90
42979;DHT22;28616;44.746;19.678;2022-07-29T01:04:48;20.90;99.90
42979;DHT22;28616;44.746;19.678;2022-07-29T01:07:14;20.90;99.90
42979;DHT22;28616;44.746;19.678;2022-07-29T01:09:40;20.90;99.90
42979;DHT22;28616;44.746;19.678;2022-07-29T01:12:07;20.90;99.90
42979;DHT22;28616;44.746;19.678;2022-07-29T01:14:34;20.90;99.90
42979;DHT22;28616;44.746;19.678;2022-07-29T01:17:11;20.80;99.90
42979;DHT22;28616;44.746;19.678;2022-07-29T01:28:47;20.80;99.90
42979;DHT22;28616;44.746;19.678;2022-07-29T01:31:22;20.80;99.90
42979;DHT22;28616;44.746;19.678;2022-07-29T01:33:57;20.70;99.90
42979;DHT22;28616;44.746;19.678;2022-07-29T01:36:32;20.70;99.90
42979;DHT22;28616;44.746;19.678;2022-07-29T01:39:38;20.60;99.90
42979;DHT22;28616;44.746;19.678;2022-07-29T01:42:03;20.50;99.90
42979;DHT22;28616;44.746;19.678;2022-07-29T01:44:52;20.50;99.90
42979;DHT22;28616;44.746;19.678;2022-07-29T01:47:21;20.40;99.90
42979;DHT22;28616;44.746;19.678;2022-07-29T01:49:51;20.40;99.90
42979;DHT22;28616;44.746;19.678;2022-07-29T01:52:38;20.30;99.90
42979;DHT22;28616;44.746;19.678;2022-07-29T01:55:11;20.30;99.90
42979;DHT22;28616;44.746;19.678;2022-07-29T01:57:40;20.20;99.90
42979;DHT22;28616;44.746;19.678;2022-07-29T02:00:08;20.20;99.90
42979;DHT22;28616;44.746;19.678;2022-07-29T02:02:35;20.10;99.90
42979;DHT22;28616;44.746;19.678;2022-07-29T02:05:03;20.10;99.90
42979;DHT22;28616;44.746;19.678;2022-07-29T02:07:32;20.10;99.90
42979;DHT22;28616;44.746;19.678;2022-07-29T02:10:00;20.10;99.90
42979;DHT22;28616;44.746;19.678;2022-07-29T02:12:28;20.10;99.90
42979;DHT22;28616;44.746;19.678;2022-07-29T02:14:56;20.00;99.90
42979;DHT22;28616;44.746;19.678;2022-07-29T02:17:27;20.00;99.90
42979;DHT22;28616;44.746;19.678;2022-07-29T02:19:57;19.90;99.90
42979;DHT22;28616;44.746;19.678;2022-07-29T02:22:26;19.90;99.90
42979;DHT22;28616;44.746;19.678;2022-07-29T02:24:55;19.90;99.90
42979;DHT22;28616;44.746;19.678;2022-07-29T02:27:23;19.90;99.90
42979;DHT22;28616;44.746;19.678;2022-07-29T02:29:51;19.90;99.90
42979;DHT22;28616;44.746;19.678;2022-07-29T02:32:19;19.90;99.90
42979;DHT22;28616;44.746;19.678;2022-07-29T02:34:47;19.90;99.90
42979;DHT22;28616;44.746;19.678;2022-07-29T02:37:15;19.90;99.90
42979;DHT22;28616;44.746;19.678;2022-07-29T02:39:44;19.90;99.90
42979;DHT22;28616;44.746;19.678;2022-07-29T02:42:13;19.80;99.90
42979;DHT22;28616;44.746;19.678;2022-07-29T02:44:40;19.80;99.90
42979;DHT22;28616;44.746;19.678;2022-07-29T02:47:38;19.90;99.90
42979;DHT22;28616;44.746;19.678;2022-07-29T02:50:14;19.90;99.90
42979;DHT22;28616;44.746;19.678;2022-07-29T02:53:22;19.90;99.90
42979;DHT22;28616;44.746;19.678;2022-07-29T02:55:56;19.90;99.90
42979;DHT22;28616;44.746;19.678;2022-07-29T02:58:32;19.80;99.90
42979;DHT22;28616;44.746;19.678;2022-07-29T03:01:04;19.80;99.90
42979;DHT22;28616;44.746;19.678;2022-07-29T03:03:36;19.80;99.90
42979;DHT22;28616;44.746;19.678;2022-07-29T03:06:03;19.80;99.90
42979;DHT22;28616;44.746;19.678;2022-07-29T03:08:31;19.70;99.90
42979;DHT22;28616;44.746;19.678;2022-07-29T03:10:58;19.80;99.90
42979;DHT22;28616;44.746;19.678;2022-07-29T03:13:24;19.70;99.90
42979;DHT22;28616;44.746;19.678;2022-07-29T03:15:52;19.60;99.90
42979;DHT22;28616;44.746;19.678;2022-07-29T03:18:19;19.60;99.90
42979;DHT22;28616;44.746;19.678;2022-07-29T03:20:45;19.60;99.90
42979;DHT22;28616;44.746;19.678;2022-07-29T03:23:11;19.50;99.90
42979;DHT22;28616;44.746;19.678;2022-07-29T03:25:37;19.50;99.90
42979;DHT22;28616;44.746;19.678;2022-07-29T03:28:02;19.50;99.90
42979;DHT22;28616;44.746;19.678;2022-07-29T03:30:28;19.50;99.90
42979;DHT22;28616;44.746;19.678;2022-07-29T03:32:56;19.50;99.90
42979;DHT22;28616;44.746;19.678;2022-07-29T03:35:22;19.40;99.90
42979;DHT22;28616;44.746;19.678;2022-07-29T03:37:48;19.40;99.90
42979;DHT22;28616;44.746;19.678;2022-07-29T03:40:21;19.40;99.90
42979;DHT22;28616;44.746;19.678;2022-07-29T03:42:49;19.30;99.90
42979;DHT22;28616;44.746;19.678;2022-07-29T03:45:18;19.30;99.90
42979;DHT22;28616;44.746;19.678;2022-07-29T03:47:57;19.30;99.90
42979;DHT22;28616;44.746;19.678;2022-07-29T03:50:24;19.30;99.90
42979;DHT22;28616;44.746;19.678;2022-07-29T03:52:51;19.40;99.90
42979;DHT22;28616;44.746;19.678;2022-07-29T03:55:17;19.40;99.90
42979;DHT22;28616;44.746;19.678;2022-07-29T03:57:44;19.40;99.90
42979;DHT22;28616;44.746;19.678;2022-07-29T04:00:11;19.50;99.90
42979;DHT22;28616;44.746;19.678;2022-07-29T04:02:38;19.50;99.90
42979;DHT22;28616;44.746;19.678;2022-07-29T04:05:05;19.60;99.90
42979;DHT22;28616;44.746;19.678;2022-07-29T04:07:36;19.60;99.90
42979;DHT22;28616;44.746;19.678;2022-07-29T04:10:02;19.70;99.90
42979;DHT22;28616;44.746;19.678;2022-07-29T04:12:28;19.80;99.90
42979;DHT22;28616;44.746;19.678;2022-07-29T04:14:54;19.80;99.90
42979;DHT22;28616;44.746;19.678;2022-07-29T04:17:20;19.80;99.90
42979;DHT22;28616;44.746;19.678;2022-07-29T04:19:46;19.90;99.90
42979;DHT22;28616;44.746;19.678;2022-07-29T04:22:11;20.00;99.90
42979;DHT22;28616;44.746;19.678;2022-07-29T04:24:37;20.00;99.90
42979;DHT22;28616;44.746;19.678;2022-07-29T04:27:03;20.00;99.90
42979;DHT22;28616;44.746;19.678;2022-07-29T04:29:29;20.10;99.90
42979;DHT22;28616;44.746;19.678;2022-07-29T04:31:54;20.20;99.90
42979;DHT22;28616;44.746;19.678;2022-07-29T04:34:20;20.30;99.90
42979;DHT22;28616;44.746;19.678;2022-07-29T04:36:46;20.30;99.90
42979;DHT22;28616;44.746;19.678;2022-07-29T04:39:12;20.40;99.90
42979;DHT22;28616;44.746;19.678;2022-07-29T04:41:38;20.50;99.90
42979;DHT22;28616;44.746;19.678;2022-07-29T04:44:04;20.60;99.90
42979;DHT22;28616;44.746;19.678;2022-07-29T04:46:31;20.70;99.90
42979;DHT22;28616;44.746;19.678;2022-07-29T04:48:57;20.80;99.90
42979;DHT22;28616;44.746;19.678;2022-07-29T04:51:23;20.80;99.90
42979;DHT22;28616;44.746;19.678;2022-07-29T04:53:49;20.90;99.90
42979;DHT22;28616;44.746;19.678;2022-07-29T04:56:15;20.90;99.90
42979;DHT22;28616;44.746;19.678;2022-07-29T04:58:40;21.00;99.90
42979;DHT22;28616;44.746;19.678;2022-07-29T05:01:06;21.00;99.90
42979;DHT22;28616;44.746;19.678;2022-07-29T05:03:32;21.10;99.90
42979;DHT22;28616;44.746;19.678;2022-07-29T05:05:58;21.20;99.90
42979;DHT22;28616;44.746;19.678;2022-07-29T05:08:23;21.30;99.90
42979;DHT22;28616;44.746;19.678;2022-07-29T05:10:49;21.30;99.90
42979;DHT22;28616;44.746;19.678;2022-07-29T05:13:15;21.40;99.90
42979;DHT22;28616;44.746;19.678;2022-07-29T05:15:41;21.50;99.90
42979;DHT22;28616;44.746;19.678;2022-07-29T05:18:07;21.70;99.90
42979;DHT22;28616;44.746;19.678;2022-07-29T05:20:33;21.80;99.90
42979;DHT22;28616;44.746;19.678;2022-07-29T05:23:01;21.90;99.90
42979;DHT22;28616;44.746;19.678;2022-07-29T05:25:28;22.00;99.90
42979;DHT22;28616;44.746;19.678;2022-07-29T05:27:55;22.10;99.90
42979;DHT22;28616;44.746;19.678;2022-07-29T05:30:21;22.20;99.90
42979;DHT22;28616;44.746;19.678;2022-07-29T05:32:47;22.30;99.90
42979;DHT22;28616;44.746;19.678;2022-07-29T05:35:14;22.40;99.90
42979;DHT22;28616;44.746;19.678;2022-07-29T05:37:40;22.60;99.90
42979;DHT22;28616;44.746;19.678;2022-07-29T05:42:33;22.80;99.90
42979;DHT22;28616;44.746;19.678;2022-07-29T05:45:00;23.00;99.90
42979;DHT22;28616;44.746;19.678;2022-07-29T05:47:26;23.00;99.90
42979;DHT22;28616;44.746;19.678;2022-07-29T05:49:52;23.10;99.90
42979;DHT22;28616;44.746;19.678;2022-07-29T05:52:18;23.30;99.90
42979;DHT22;28616;44.746;19.678;2022-07-29T05:54:44;23.40;99.90
42979;DHT22;28616;44.746;19.678;2022-07-29T23:11:24;24.70;97.40
42979;DHT22;28616;44.746;19.678;2022-07-29T23:13:50;24.60;97.80
42979;DHT22;28616;44.746;19.678;2022-07-29T23:16:16;24.40;99.90
42979;DHT22;28616;44.746;19.678;2022-07-29T23:18:42;24.40;99.90
42979;DHT22;28616;44.746;19.678;2022-07-29T23:21:08;24.30;99.90
42979;DHT22;28616;44.746;19.678;2022-07-29T23:23:34;24.30;99.90
42979;DHT22;28616;44.746;19.678;2022-07-29T23:26:00;24.20;99.90
42979;DHT22;28616;44.746;19.678;2022-07-29T23:28:25;24.20;99.90
42979;DHT22;28616;44.746;19.678;2022-07-29T23:30:51;24.10;99.90
42979;DHT22;28616;44.746;19.678;2022-07-29T23:33:17;24.10;99.90
42979;DHT22;28616;44.746;19.678;2022-07-29T23:35:43;24.10;99.90
42979;DHT22;28616;44.746;19.678;2022-07-29T23:38:09;24.10;99.90
42979;DHT22;28616;44.746;19.678;2022-07-29T23:40:34;24.10;99.90
42979;DHT22;28616;44.746;19.678;2022-07-29T23:43:00;24.10;99.90
42979;DHT22;28616;44.746;19.678;2022-07-29T23:45:26;24.10;99.90
42979;DHT22;28616;44.746;19.678;2022-07-29T23:47:52;24.10;99.90
42979;DHT22;28616;44.746;19.678;2022-07-29T23:50:17;24.10;99.90
42979;DHT22;28616;44.746;19.678;2022-07-29T23:52:44;24.20;99.90
42979;DHT22;28616;44.746;19.678;2022-07-29T23:55:10;24.20;99.90
42979;DHT22;28616;44.746;19.678;2022-07-29T23:57:36;24.10;99.90
